Terminal Aerodrome Forecast
Issued by NWS

Home | Current Version | Previous Version | Text Only | Print | Product List | Glossary On
Versions: 1 2 3 4 5 6 7 8 9 10 11 12 13 14 15 16 17 18 19 20 21 22
000
FTUS41 KPHI 260500
TAFMIV
TAF
KMIV 260526Z 2606/2706 07009KT P6SM OVC035
     FM261200 06010KT P6SM -SN OVC025
     FM261500 06012G22KT 3SM -RASN OVC009
     FM262100 04016G26KT 1SM -SN OVC007
     FM270200 03020KT 2SM -SN BR OVC012=

USA.gov is the U.S. government's official web portal to all federal, state and local government web resources and services.